createdAt,value
2023-02-22T00:01:19.451Z,4.91
2023-02-22T00:03:52.268Z,5.05
2023-02-22T00:06:21.856Z,5.07
2023-02-22T00:08:50.178Z,5.11
2023-02-22T00:11:18.035Z,4.96
2023-02-22T00:13:45.407Z,4.79
2023-02-22T00:16:18.707Z,4.74
2023-02-22T00:18:46.627Z,4.61
2023-02-22T00:21:15.584Z,4.55
2023-02-22T00:23:48.692Z,4.44
2023-02-22T00:26:20.027Z,4.41
2023-02-22T00:28:49.543Z,4.29
2023-02-22T00:31:22.808Z,4.29
2023-02-22T00:34:03.277Z,4.26
2023-02-22T00:36:30.752Z,4.29
2023-02-22T00:38:58.106Z,4.34
2023-02-22T00:41:25.659Z,4.36
2023-02-22T00:43:55.191Z,4.27
2023-02-22T00:46:22.595Z,4.24
2023-02-22T00:48:50.085Z,4.22
2023-02-22T00:51:17.757Z,4.25
2023-02-22T00:53:45.723Z,4.09
2023-02-22T00:56:15.016Z,4.07
2023-02-22T00:58:42.434Z,4.01
2023-02-22T01:01:09.895Z,3.96
2023-02-22T01:03:41.495Z,3.91
2023-02-22T01:06:08.994Z,3.95
2023-02-22T01:08:37.338Z,4.19
2023-02-22T01:11:04.986Z,3.99
2023-02-22T01:13:33.121Z,3.90
2023-02-22T01:16:01.514Z,3.76
2023-02-22T01:18:28.820Z,3.68
2023-02-22T01:20:56.286Z,3.78
2023-02-22T01:23:23.610Z,3.76
2023-02-22T01:25:52.133Z,3.83
2023-02-22T01:28:19.606Z,3.76
2023-02-22T01:30:48.635Z,3.66
2023-02-22T01:33:23.287Z,3.75
2023-02-22T01:35:51.572Z,3.70
2023-02-22T01:38:19.224Z,3.53
2023-02-22T01:40:50.682Z,3.62
2023-02-22T01:43:29.912Z,3.52
2023-02-22T01:46:21.421Z,3.45
2023-02-22T01:48:59.692Z,3.51
2023-02-22T01:51:31.391Z,3.70
2023-02-22T01:54:18.697Z,3.72
2023-02-22T01:57:01.190Z,3.66
2023-02-22T01:59:33.388Z,3.63
2023-02-22T02:02:00.935Z,3.58
2023-02-22T02:04:29.638Z,3.57
2023-02-22T02:07:01.910Z,3.74
2023-02-22T02:10:00.616Z,4.03
2023-02-22T02:12:36.071Z,3.91
2023-02-22T02:15:29.248Z,3.81
2023-02-22T02:18:01.053Z,3.59
2023-02-22T02:20:47.655Z,3.53
2023-02-22T02:23:26.182Z,3.51
2023-02-22T02:25:58.958Z,3.32
2023-02-22T02:28:30.965Z,3.39
2023-02-22T02:31:26.046Z,3.26
2023-02-22T02:34:16.875Z,3.22
2023-02-22T02:37:07.013Z,3.30
2023-02-22T02:40:11.663Z,3.36
2023-02-22T02:42:46.442Z,3.39
2023-02-22T02:45:24.264Z,3.29
2023-02-22T02:47:59.901Z,3.27
2023-02-22T02:50:34.235Z,3.34
2023-02-22T02:53:06.134Z,3.40
2023-02-22T02:55:37.022Z,3.12
2023-02-22T02:58:18.504Z,3.29
2023-02-22T03:00:46.445Z,3.35
2023-02-22T03:03:37.862Z,3.28
2023-02-22T03:06:20.712Z,3.14
2023-02-22T03:09:09.315Z,3.15
2023-02-22T03:12:12.152Z,3.05
2023-02-22T03:14:48.777Z,3.05
2023-02-22T03:17:49.374Z,3.16
2023-02-22T03:20:50.783Z,3.05
2023-02-22T03:23:44.514Z,3.05
2023-02-22T03:26:15.291Z,2.90
2023-02-22T03:28:51.524Z,2.77
2023-02-22T03:31:26.454Z,2.87
2023-02-22T03:33:59.323Z,2.87
2023-02-22T03:36:33.919Z,2.76
2023-02-22T03:39:04.555Z,2.71
2023-02-22T03:41:35.099Z,2.47
2023-02-22T03:44:09.769Z,2.33
2023-02-22T03:46:41.295Z,2.08
2023-02-22T03:49:35.765Z,2.33
2023-02-22T03:52:05.413Z,2.09
2023-02-22T03:54:33.405Z,2.22
2023-02-22T03:57:34.246Z,2.12
2023-02-22T04:00:07.128Z,2.04
2023-02-22T04:02:35.103Z,2.10
2023-02-22T04:05:03.083Z,2.37
2023-02-22T04:07:30.578Z,2.24
2023-02-22T04:09:59.195Z,1.93
2023-02-22T04:12:28.657Z,2.27
2023-02-22T04:14:55.899Z,2.34
2023-02-22T04:17:23.338Z,2.40
2023-02-22T04:19:51.723Z,2.18
2023-02-22T04:22:18.902Z,1.93
2023-02-22T04:24:46.337Z,2.04
2023-02-22T04:27:13.744Z,1.86
2023-02-22T04:29:41.463Z,1.76
2023-02-22T04:32:10.468Z,1.76
2023-02-22T04:34:37.679Z,1.68
2023-02-22T04:37:05.246Z,1.61
2023-02-22T04:39:32.700Z,1.61
2023-02-22T04:42:01.155Z,1.62
2023-02-22T04:44:28.605Z,1.57
2023-02-22T04:46:57.838Z,1.60
2023-02-22T04:49:31.785Z,1.85
2023-02-22T04:52:05.329Z,1.78
2023-02-22T04:54:32.843Z,1.72
2023-02-22T04:57:00.224Z,1.75
2023-02-22T04:59:28.665Z,1.73
2023-02-22T05:01:55.854Z,1.73
2023-02-22T05:04:24.111Z,1.75
2023-02-22T05:06:53.424Z,1.71
2023-02-22T05:09:22.147Z,1.72
2023-02-22T05:11:50.649Z,1.73
2023-02-22T05:14:18.032Z,1.85
2023-02-22T05:16:45.499Z,1.81
2023-02-22T05:19:13.045Z,1.85
2023-02-22T05:21:40.706Z,1.83
2023-02-22T05:24:09.913Z,1.79
2023-02-22T05:26:37.522Z,1.82
2023-02-22T05:29:04.787Z,1.69
2023-02-22T05:31:31.976Z,1.66
2023-02-22T05:33:59.356Z,1.81
2023-02-22T05:36:28.330Z,1.91
2023-02-22T05:38:56.412Z,1.81
2023-02-22T05:41:23.704Z,1.92
2023-02-22T05:43:51.109Z,2.05
2023-02-22T05:46:24.268Z,2.11
2023-02-22T05:48:51.698Z,2.12
2023-02-22T05:51:24.953Z,2.11
2023-02-22T05:53:52.918Z,2.04
2023-02-22T05:56:25.242Z,2.10
2023-02-22T05:58:52.995Z,2.08
2023-02-22T06:01:20.718Z,2.15
2023-02-22T06:03:50.039Z,2.31
2023-02-22T06:06:22.162Z,2.30
2023-02-22T06:08:50.895Z,2.08
2023-02-22T06:11:20.043Z,1.88
2023-02-22T06:13:52.721Z,1.75
2023-02-22T06:16:22.044Z,2.08
2023-02-22T06:18:49.750Z,2.06
2023-02-22T06:21:17.972Z,2.05
2023-02-22T06:23:48.197Z,2.08
2023-02-22T06:26:20.243Z,2.14
2023-02-22T06:28:47.608Z,2.17
2023-02-22T06:31:15.191Z,2.20
2023-02-22T06:33:42.725Z,2.31
2023-02-22T06:36:11.697Z,2.36
2023-02-22T06:38:39.226Z,2.36
2023-02-22T06:41:06.636Z,2.43
2023-02-22T06:43:34.116Z,2.42
2023-02-22T06:46:01.645Z,2.42
2023-02-22T06:48:28.988Z,2.56
2023-02-22T06:50:56.016Z,2.64
2023-02-22T06:53:23.519Z,2.71
2023-02-22T06:55:53.599Z,2.78
2023-02-22T06:58:20.925Z,2.86
2023-02-22T07:00:48.385Z,3.00
2023-02-22T07:03:16.693Z,3.06
2023-02-22T07:05:43.883Z,3.22
2023-02-22T07:08:12.292Z,3.34
2023-02-22T07:10:40.810Z,3.46
2023-02-22T07:13:09.390Z,3.61
2023-02-22T07:15:36.813Z,3.75
2023-02-22T07:18:04.717Z,3.98
2023-02-22T07:20:32.737Z,4.21
2023-02-22T07:23:01.527Z,4.36
2023-02-22T07:25:28.678Z,4.47
2023-02-22T07:27:56.013Z,4.68
2023-02-22T07:30:31.587Z,4.86
2023-02-22T07:33:01.804Z,4.93
2023-02-22T07:35:46.820Z,5.02
2023-02-22T07:38:16.372Z,5.20
2023-02-22T07:40:44.093Z,5.15
2023-02-22T07:43:22.819Z,5.22
2023-02-22T07:45:51.582Z,5.29
2023-02-22T07:48:20.902Z,5.28
2023-02-22T07:50:48.276Z,5.36
2023-02-22T07:53:30.493Z,5.29
2023-02-22T07:56:03.765Z,5.27
2023-02-22T07:58:32.954Z,5.60
2023-02-22T08:01:02.487Z,5.55
2023-02-22T08:03:34.560Z,5.42
2023-02-22T08:06:03.352Z,5.45
2023-02-22T08:08:30.633Z,5.49
2023-02-22T08:11:01.125Z,5.58
2023-02-22T08:13:29.633Z,5.56
2023-02-22T08:15:57.008Z,5.75
2023-02-22T08:18:25.824Z,5.65
2023-02-22T08:20:54.002Z,5.68
2023-02-22T08:23:25.513Z,5.75
2023-02-22T08:25:53.846Z,5.76
2023-02-22T08:28:23.813Z,5.80
2023-02-22T08:30:59.436Z,5.80
2023-02-22T08:33:26.845Z,5.68
2023-02-22T08:35:55.299Z,5.77
2023-02-22T08:38:29.192Z,6.02
2023-02-22T08:40:57.225Z,6.25
2023-02-22T08:43:24.988Z,6.42
2023-02-22T08:45:57.464Z,6.49
2023-02-22T08:48:31.316Z,6.79
2023-02-22T08:50:59.131Z,6.92
2023-02-22T08:53:27.316Z,7.17
2023-02-22T08:55:55.751Z,7.34
2023-02-22T08:58:24.309Z,7.49
2023-02-22T09:00:51.762Z,7.31
2023-02-22T09:03:19.308Z,7.57
2023-02-22T09:05:46.710Z,7.75
2023-02-22T09:08:15.553Z,7.74
2023-02-22T09:10:43.193Z,7.73
2023-02-22T09:13:12.315Z,7.61
2023-02-22T09:15:40.309Z,7.79
2023-02-22T09:18:09.530Z,8.04
2023-02-22T09:20:37.519Z,8.26
2023-02-22T09:23:09.922Z,8.47
2023-02-22T09:25:41.204Z,8.70
2023-02-22T09:28:09.458Z,8.92
2023-02-22T09:30:43.189Z,8.91
2023-02-22T09:33:13.733Z,9.00
2023-02-22T09:35:42.966Z,9.07
2023-02-22T09:38:11.644Z,9.07
2023-02-22T09:40:46.189Z,8.81
2023-02-22T09:43:25.465Z,8.88
2023-02-22T09:46:06.145Z,9.15
2023-02-22T09:48:49.194Z,9.45
2023-02-22T09:51:19.644Z,9.75
2023-02-22T09:53:50.138Z,10.23
2023-02-22T09:56:20.892Z,10.80
2023-02-22T09:58:53.054Z,11.18
2023-02-22T10:01:30.252Z,11.36
2023-02-22T10:04:23.290Z,11.29
2023-02-22T10:06:56.243Z,11.15
2023-02-22T10:09:30.754Z,11.03
2023-02-22T10:12:03.277Z,10.99
2023-02-22T10:14:43.804Z,11.07
2023-02-22T10:17:36.104Z,11.84
2023-02-22T10:20:41.349Z,12.70
2023-02-22T10:23:26.257Z,12.91
2023-02-22T10:26:00.782Z,12.60
2023-02-22T10:28:55.599Z,12.24
2023-02-22T10:31:31.598Z,11.92
2023-02-22T10:34:07.878Z,11.81
2023-02-22T10:36:39.410Z,11.71
2023-02-22T10:39:35.415Z,11.81
2023-02-22T10:42:07.214Z,11.34
2023-02-22T10:44:36.368Z,11.49
2023-02-22T10:47:07.425Z,11.33
2023-02-22T10:49:41.533Z,11.06
2023-02-22T10:52:19.719Z,10.93
2023-02-22T10:55:13.808Z,10.86
2023-02-22T10:57:42.589Z,10.50
2023-02-22T11:00:29.743Z,10.66
2023-02-22T11:03:02.171Z,10.90
2023-02-22T11:05:38.588Z,11.10
2023-02-22T11:08:16.940Z,11.14
2023-02-22T11:10:44.519Z,11.31
2023-02-22T11:13:28.315Z,11.39
2023-02-22T11:16:01.302Z,11.44
2023-02-22T11:18:35.427Z,11.34
2023-02-22T11:21:10.573Z,11.25
2023-02-22T11:23:40.607Z,11.15
2023-02-22T11:26:17.830Z,11.05
2023-02-22T11:28:56.371Z,11.00
2023-02-22T11:31:27.766Z,10.99
2023-02-22T11:34:03.265Z,11.04
2023-02-22T11:36:41.212Z,11.03
2023-02-22T11:39:34.619Z,11.07
2023-02-22T11:42:25.422Z,10.96
2023-02-22T11:45:21.776Z,10.83
2023-02-22T11:48:01.384Z,10.64
2023-02-22T11:50:40.171Z,10.66
2023-02-22T11:53:52.370Z,10.69
2023-02-22T11:56:37.953Z,10.71
2023-02-22T11:59:21.410Z,10.77
2023-02-22T12:02:00.262Z,10.75
2023-02-22T12:05:00.802Z,10.64
2023-02-22T12:07:33.264Z,10.79
2023-02-22T12:10:16.007Z,10.82
2023-02-22T12:13:10.908Z,10.84
2023-02-22T12:15:54.208Z,10.84
2023-02-22T12:18:35.986Z,10.86
2023-02-22T12:21:09.510Z,10.90
2023-02-22T12:23:46.209Z,10.99
2023-02-22T12:26:26.639Z,11.20
2023-02-22T12:29:05.544Z,11.37
2023-02-22T12:31:53.532Z,11.53
2023-02-22T12:34:29.890Z,11.52
2023-02-22T12:37:35.400Z,11.75
2023-02-22T12:40:24.406Z,12.32
2023-02-22T12:43:32.830Z,13.18
2023-02-22T12:46:13.349Z,13.80
2023-02-22T12:49:01.094Z,14.14
2023-02-22T12:51:42.391Z,14.48
2023-02-22T12:54:34.223Z,14.64
2023-02-22T12:57:33.619Z,14.40
2023-02-22T13:00:12.576Z,14.30
2023-02-22T13:02:47.963Z,14.20
2023-02-22T13:05:19.223Z,14.00
2023-02-22T13:08:02.054Z,13.92
2023-02-22T13:10:32.955Z,13.78
2023-02-22T13:13:21.852Z,13.68
2023-02-22T13:16:22.085Z,13.73
2023-02-22T13:19:15.107Z,13.63
2023-02-22T13:21:47.744Z,13.50
2023-02-22T13:24:17.791Z,13.63
2023-02-22T13:26:56.771Z,13.76
2023-02-22T13:29:47.120Z,13.85
2023-02-22T13:32:47.269Z,13.95
2023-02-22T13:35:42.352Z,15.40
2023-02-22T13:38:46.895Z,16.34
2023-02-22T13:41:14.092Z,16.37
2023-02-22T13:44:07.940Z,16.19
2023-02-22T13:46:58.223Z,16.21
2023-02-22T13:50:03.548Z,16.45
2023-02-22T13:52:35.151Z,16.46
2023-02-22T13:55:12.218Z,16.51
2023-02-22T13:57:52.025Z,17.00
2023-02-22T14:00:23.224Z,17.64
2023-02-22T14:03:08.635Z,17.52
2023-02-22T14:05:44.961Z,17.23
2023-02-22T14:08:19.187Z,17.12
2023-02-22T14:10:55.374Z,16.53
2023-02-22T14:13:30.207Z,16.30
2023-02-22T14:16:02.773Z,16.02
2023-02-22T14:18:35.604Z,15.68
2023-02-22T14:21:15.994Z,15.52
2023-02-22T14:23:47.501Z,15.45
2023-02-22T14:26:35.044Z,15.36
2023-02-22T14:29:08.465Z,15.10
2023-02-22T14:31:41.372Z,14.74
2023-02-22T14:34:17.703Z,14.48
2023-02-22T14:37:25.199Z,14.10
2023-02-22T14:40:15.850Z,13.90
2023-02-22T14:42:48.626Z,13.66
2023-02-22T14:45:30.135Z,13.41
2023-02-22T14:48:25.321Z,13.18
2023-02-22T14:51:11.894Z,12.91
2023-02-22T14:53:54.544Z,12.81
2023-02-22T14:56:23.716Z,12.67
2023-02-22T14:59:17.935Z,12.52
2023-02-22T15:02:02.170Z,12.39
2023-02-22T15:04:36.139Z,12.38
2023-02-22T15:07:21.510Z,12.21
2023-02-22T15:09:50.299Z,12.47
2023-02-22T15:12:30.413Z,12.95
2023-02-22T15:15:27.809Z,13.14
2023-02-22T15:17:59.138Z,13.35
2023-02-22T15:20:35.481Z,13.47
2023-02-22T15:23:02.910Z,13.69
2023-02-22T15:25:31.756Z,13.83
2023-02-22T15:28:09.735Z,13.75
2023-02-22T15:30:38.341Z,13.90
2023-02-22T15:33:18.032Z,13.84
2023-02-22T15:35:45.314Z,13.64
2023-02-22T15:38:12.843Z,13.19
2023-02-22T15:40:43.433Z,12.65
2023-02-22T15:43:25.429Z,12.18
2023-02-22T15:45:52.979Z,11.83
2023-02-22T15:48:28.510Z,11.39
2023-02-22T15:51:12.643Z,11.00
2023-02-22T15:53:46.374Z,10.72
2023-02-22T15:56:16.302Z,10.57
2023-02-22T15:58:46.769Z,10.38
2023-02-22T16:01:19.959Z,10.24
2023-02-22T16:04:00.249Z,10.09
2023-02-22T16:06:35.601Z,9.97
2023-02-22T16:09:26.398Z,9.90
2023-02-22T16:12:31.820Z,9.79
2023-02-22T16:15:17.134Z,9.57
2023-02-22T16:17:59.776Z,9.34
2023-02-22T16:20:32.813Z,9.23
2023-02-22T16:23:00.377Z,9.29
2023-02-22T16:25:36.103Z,9.20
2023-02-22T16:28:31.028Z,9.17
2023-02-22T16:31:05.611Z,9.00
2023-02-22T16:33:34.300Z,8.91
2023-02-22T16:36:06.565Z,8.81
2023-02-22T16:38:34.393Z,8.73
2023-02-22T16:41:01.842Z,8.67
2023-02-22T16:43:33.186Z,8.53
2023-02-22T16:46:02.006Z,8.55
2023-02-22T16:48:38.595Z,8.47
2023-02-22T16:51:55.919Z,8.51
2023-02-22T16:54:36.743Z,8.44
2023-02-22T16:57:06.116Z,8.40
2023-02-22T16:59:37.602Z,8.38
2023-02-22T17:02:08.272Z,8.28
2023-02-22T17:04:35.904Z,8.18
2023-02-22T17:07:05.207Z,8.20
2023-02-22T17:09:33.846Z,8.27
2023-02-22T17:12:02.316Z,8.21
2023-02-22T17:14:34.034Z,8.16
2023-02-22T17:17:01.960Z,8.09
2023-02-22T17:19:29.853Z,8.12
2023-02-22T17:21:59.544Z,8.06
2023-02-22T17:24:29.893Z,8.06
2023-02-22T17:27:00.599Z,8.00
2023-02-22T17:29:30.629Z,7.93
2023-02-22T17:31:59.231Z,7.86
2023-02-22T17:34:27.445Z,7.93
2023-02-22T17:36:55.647Z,7.87
2023-02-22T17:39:23.620Z,7.82
2023-02-22T17:41:58.057Z,7.77
2023-02-22T17:44:32.631Z,7.71
2023-02-22T17:47:02.535Z,7.69
2023-02-22T17:49:30.492Z,7.64
2023-02-22T17:52:00.151Z,7.51
2023-02-22T17:54:34.122Z,7.53
2023-02-22T17:57:02.432Z,7.48
2023-02-22T17:59:30.353Z,7.39
2023-02-22T18:01:58.696Z,7.43
2023-02-22T18:04:26.618Z,7.53
2023-02-22T18:06:55.834Z,7.48
2023-02-22T18:09:24.314Z,7.43
2023-02-22T18:11:59.327Z,7.33
2023-02-22T18:14:30.506Z,7.23
2023-02-22T18:17:01.018Z,7.26
2023-02-22T18:19:29.774Z,7.12
2023-02-22T18:22:03.810Z,7.14
2023-02-22T18:24:36.695Z,7.23
2023-02-22T18:27:07.676Z,7.19
2023-02-22T18:29:37.504Z,7.15
2023-02-22T18:32:08.925Z,7.00
2023-02-22T18:34:36.811Z,7.06
2023-02-22T18:37:06.448Z,7.04
2023-02-22T18:39:41.445Z,6.96
2023-02-22T18:42:14.180Z,6.94
2023-02-22T18:44:48.706Z,6.89
2023-02-22T18:47:17.144Z,7.03
2023-02-22T18:49:46.605Z,6.95
2023-02-22T18:52:16.559Z,6.92
2023-02-22T18:54:45.104Z,6.90
2023-02-22T18:57:14.704Z,6.82
2023-02-22T18:59:44.303Z,6.84
2023-02-22T19:02:19.936Z,6.74
2023-02-22T19:04:49.632Z,6.80
2023-02-22T19:07:20.269Z,6.69
2023-02-22T19:09:52.288Z,6.51
2023-02-22T19:12:21.401Z,6.52
2023-02-22T19:14:49.561Z,6.57
2023-02-22T19:17:17.432Z,6.58
2023-02-22T19:19:47.823Z,6.32
2023-02-22T19:22:16.772Z,6.21
2023-02-22T19:24:49.401Z,6.22
2023-02-22T19:27:27.180Z,6.18
2023-02-22T19:29:55.343Z,6.24
2023-02-22T19:32:24.295Z,6.21
2023-02-22T19:35:08.448Z,6.23
2023-02-22T19:37:37.995Z,6.21
2023-02-22T19:40:12.460Z,6.25
2023-02-22T19:42:51.151Z,6.26
2023-02-22T19:45:20.588Z,6.23
2023-02-22T19:47:57.754Z,6.18
2023-02-22T19:50:26.016Z,6.34
2023-02-22T19:52:56.792Z,6.29
2023-02-22T19:55:32.543Z,6.14
2023-02-22T19:58:03.154Z,6.06
2023-02-22T20:00:36.397Z,5.97
2023-02-22T20:03:10.042Z,5.92
2023-02-22T20:05:47.725Z,5.96
2023-02-22T20:08:16.447Z,5.87
2023-02-22T20:10:47.605Z,5.74
2023-02-22T20:13:17.894Z,5.65
2023-02-22T20:15:46.116Z,5.71
2023-02-22T20:18:14.946Z,5.70
2023-02-22T20:20:45.881Z,5.75
2023-02-22T20:23:13.960Z,5.69
2023-02-22T20:25:43.295Z,5.59
2023-02-22T20:28:14.665Z,5.63
2023-02-22T20:30:45.803Z,5.61
2023-02-22T20:33:15.302Z,5.56
2023-02-22T20:35:43.864Z,5.50
2023-02-22T20:38:14.148Z,5.45
2023-02-22T20:40:44.621Z,5.42
2023-02-22T20:43:12.763Z,5.40
2023-02-22T20:45:41.205Z,5.29
2023-02-22T20:48:13.059Z,5.30
2023-02-22T20:50:43.573Z,5.15
2023-02-22T20:53:11.993Z,5.09
2023-02-22T20:55:51.159Z,4.99
2023-02-22T20:58:23.691Z,4.90
2023-02-22T21:00:58.148Z,4.67
2023-02-22T21:03:27.665Z,4.65
2023-02-22T21:05:55.873Z,4.73
2023-02-22T21:08:31.004Z,4.52
2023-02-22T21:10:59.880Z,4.36
2023-02-22T21:13:33.831Z,4.27
2023-02-22T21:16:03.630Z,4.22
2023-02-22T21:18:31.716Z,4.12
2023-02-22T21:21:13.234Z,4.18
2023-02-22T21:23:41.889Z,4.14
2023-02-22T21:26:21.164Z,4.25
2023-02-22T21:28:55.722Z,4.17
2023-02-22T21:31:27.508Z,3.97
2023-02-22T21:34:05.017Z,3.96
2023-02-22T21:36:32.802Z,3.94
2023-02-22T21:39:08.828Z,3.84
2023-02-22T21:41:40.511Z,3.69
2023-02-22T21:44:10.104Z,3.71
2023-02-22T21:46:47.620Z,3.62
2023-02-22T21:49:15.320Z,3.56
2023-02-22T21:51:45.014Z,3.53
2023-02-22T21:54:13.169Z,3.52
2023-02-22T21:56:43.451Z,3.48
2023-02-22T21:59:19.088Z,3.37
2023-02-22T22:01:50.310Z,3.33
2023-02-22T22:04:21.260Z,3.26
2023-02-22T22:06:53.995Z,3.20
2023-02-22T22:09:24.264Z,3.23
2023-02-22T22:12:06.485Z,3.23
2023-02-22T22:14:35.477Z,3.10
2023-02-22T22:17:05.935Z,3.10
2023-02-22T22:19:39.474Z,3.11
2023-02-22T22:22:08.323Z,3.16
2023-02-22T22:24:37.365Z,3.06
2023-02-22T22:27:06.698Z,2.87
2023-02-22T22:29:34.752Z,2.80
2023-02-22T22:32:03.582Z,2.74
2023-02-22T22:34:31.331Z,2.66
2023-02-22T22:36:59.682Z,2.65
2023-02-22T22:39:29.156Z,2.68
2023-02-22T22:41:57.222Z,2.77
2023-02-22T22:44:24.594Z,2.69
2023-02-22T22:46:55.095Z,2.71
2023-02-22T22:49:25.611Z,2.63
2023-02-22T22:51:54.810Z,2.63
2023-02-22T22:54:22.062Z,2.61
2023-02-22T22:56:49.615Z,2.51
2023-02-22T22:59:18.272Z,2.41
2023-02-22T23:01:47.719Z,2.29
2023-02-22T23:04:17.208Z,2.32
2023-02-22T23:06:51.122Z,2.19
2023-02-22T23:09:28.137Z,2.04
2023-02-22T23:12:09.164Z,1.98
2023-02-22T23:14:44.415Z,1.92
2023-02-22T23:17:27.104Z,1.84
2023-02-22T23:19:54.250Z,1.97
2023-02-22T23:22:21.793Z,2.22
2023-02-22T23:24:51.204Z,2.03
2023-02-22T23:27:19.306Z,1.88
2023-02-22T23:29:47.662Z,1.55
2023-02-22T23:32:16.144Z,1.63
2023-02-22T23:34:44.257Z,1.70
2023-02-22T23:37:14.370Z,1.50
2023-02-22T23:39:43.604Z,1.40
2023-02-22T23:42:11.125Z,1.32
2023-02-22T23:44:40.080Z,1.32
2023-02-22T23:47:07.512Z,1.28
2023-02-22T23:49:38.788Z,1.27
2023-02-22T23:52:08.279Z,1.31
2023-02-22T23:54:44.241Z,1.31
2023-02-22T23:57:11.793Z,1.26
2023-02-22T23:59:45.912Z,1.16
